sensor_id;sensor_type;location;lat;lon;timestamp;P1;durP1;ratioP1;P2;durP2;ratioP2
21497;SDS011;10910;50.932;0.246;2022-10-22T00:02:10;0.40;;;0.40;;
21497;SDS011;10910;50.932;0.246;2022-10-22T00:04:40;0.60;;;0.60;;
21497;SDS011;10910;50.932;0.246;2022-10-22T00:07:06;0.50;;;0.50;;
21497;SDS011;10910;50.932;0.246;2022-10-22T00:09:32;0.50;;;0.50;;
21497;SDS011;10910;50.932;0.246;2022-10-22T00:11:58;0.50;;;0.50;;
21497;SDS011;10910;50.932;0.246;2022-10-22T00:14:24;0.50;;;0.50;;
21497;SDS011;10910;50.932;0.246;2022-10-22T00:16:50;0.50;;;0.50;;
21497;SDS011;10910;50.932;0.246;2022-10-22T00:19:16;0.50;;;0.50;;
21497;SDS011;10910;50.932;0.246;2022-10-22T00:21:42;0.60;;;0.60;;
21497;SDS011;10910;50.932;0.246;2022-10-22T00:24:08;0.40;;;0.40;;
21497;SDS011;10910;50.932;0.246;2022-10-22T00:26:34;0.60;;;0.60;;
21497;SDS011;10910;50.932;0.246;2022-10-22T00:29:00;0.70;;;0.70;;
21497;SDS011;10910;50.932;0.246;2022-10-22T00:31:27;0.60;;;0.60;;
21497;SDS011;10910;50.932;0.246;2022-10-22T00:33:53;0.60;;;0.60;;
21497;SDS011;10910;50.932;0.246;2022-10-22T00:36:19;0.60;;;0.60;;
21497;SDS011;10910;50.932;0.246;2022-10-22T00:38:45;0.50;;;0.50;;
21497;SDS011;10910;50.932;0.246;2022-10-22T00:41:11;0.50;;;0.50;;
21497;SDS011;10910;50.932;0.246;2022-10-22T00:43:57;0.50;;;0.50;;
21497;SDS011;10910;50.932;0.246;2022-10-22T00:46:23;0.50;;;0.50;;
21497;SDS011;10910;50.932;0.246;2022-10-22T00:48:49;0.60;;;0.60;;
21497;SDS011;10910;50.932;0.246;2022-10-22T00:51:16;0.57;;;0.57;;
21497;SDS011;10910;50.932;0.246;2022-10-22T00:53:49;0.60;;;0.60;;
21497;SDS011;10910;50.932;0.246;2022-10-22T00:56:17;0.50;;;0.50;;
21497;SDS011;10910;50.932;0.246;2022-10-22T00:58:47;0.52;;;0.52;;
21497;SDS011;10910;50.932;0.246;2022-10-22T01:01:16;0.50;;;0.50;;
21497;SDS011;10910;50.932;0.246;2022-10-22T01:03:45;0.50;;;0.50;;
21497;SDS011;10910;50.932;0.246;2022-10-22T01:06:13;0.60;;;0.60;;
21497;SDS011;10910;50.932;0.246;2022-10-22T01:11:30;0.50;;;0.50;;
21497;SDS011;10910;50.932;0.246;2022-10-22T01:16:40;0.60;;;0.60;;
21497;SDS011;10910;50.932;0.246;2022-10-22T01:21:35;0.50;;;0.50;;
21497;SDS011;10910;50.932;0.246;2022-10-22T01:24:13;0.50;;;0.50;;
21497;SDS011;10910;50.932;0.246;2022-10-22T01:32:47;0.60;;;0.60;;
21497;SDS011;10910;50.932;0.246;2022-10-22T01:35:15;0.60;;;0.60;;
21497;SDS011;10910;50.932;0.246;2022-10-22T01:37:47;0.60;;;0.60;;
21497;SDS011;10910;50.932;0.246;2022-10-22T01:40:15;0.60;;;0.60;;
21497;SDS011;10910;50.932;0.246;2022-10-22T01:42:41;0.60;;;0.60;;
21497;SDS011;10910;50.932;0.246;2022-10-22T01:45:09;0.60;;;0.60;;
21497;SDS011;10910;50.932;0.246;2022-10-22T01:47:38;0.70;;;0.70;;
21497;SDS011;10910;50.932;0.246;2022-10-22T01:52:59;0.60;;;0.60;;
21497;SDS011;10910;50.932;0.246;2022-10-22T01:58:58;0.70;;;0.70;;
21497;SDS011;10910;50.932;0.246;2022-10-22T02:01:39;0.50;;;0.50;;
21497;SDS011;10910;50.932;0.246;2022-10-22T02:06:50;0.52;;;0.52;;
21497;SDS011;10910;50.932;0.246;2022-10-22T02:09:18;0.60;;;0.60;;
21497;SDS011;10910;50.932;0.246;2022-10-22T02:11:46;0.70;;;0.70;;
21497;SDS011;10910;50.932;0.246;2022-10-22T02:14:13;0.70;;;0.70;;
21497;SDS011;10910;50.932;0.246;2022-10-22T02:16:42;0.55;;;0.55;;
21497;SDS011;10910;50.932;0.246;2022-10-22T02:22:01;0.60;;;0.60;;
21497;SDS011;10910;50.932;0.246;2022-10-22T02:24:28;0.60;;;0.60;;
21497;SDS011;10910;50.932;0.246;2022-10-22T02:29:25;0.60;;;0.60;;
21497;SDS011;10910;50.932;0.246;2022-10-22T02:31:55;0.50;;;0.50;;
21497;SDS011;10910;50.932;0.246;2022-10-22T02:34:24;0.50;;;0.50;;
21497;SDS011;10910;50.932;0.246;2022-10-22T02:36:54;0.70;;;0.70;;
21497;SDS011;10910;50.932;0.246;2022-10-22T02:39:20;0.50;;;0.50;;
21497;SDS011;10910;50.932;0.246;2022-10-22T02:41:47;0.52;;;0.52;;
21497;SDS011;10910;50.932;0.246;2022-10-22T02:44:13;0.60;;;0.60;;
21497;SDS011;10910;50.932;0.246;2022-10-22T02:46:39;0.60;;;0.60;;
21497;SDS011;10910;50.932;0.246;2022-10-22T02:49:07;0.68;;;0.68;;
21497;SDS011;10910;50.932;0.246;2022-10-22T02:51:33;0.60;;;0.60;;
21497;SDS011;10910;50.932;0.246;2022-10-22T02:53:59;0.70;;;0.70;;
21497;SDS011;10910;50.932;0.246;2022-10-22T02:56:25;0.52;;;0.52;;
21497;SDS011;10910;50.932;0.246;2022-10-22T02:58:51;0.50;;;0.50;;
21497;SDS011;10910;50.932;0.246;2022-10-22T03:01:17;0.50;;;0.50;;
21497;SDS011;10910;50.932;0.246;2022-10-22T03:03:44;0.60;;;0.60;;
21497;SDS011;10910;50.932;0.246;2022-10-22T03:06:10;0.70;;;0.70;;
21497;SDS011;10910;50.932;0.246;2022-10-22T03:08:36;0.50;;;0.50;;
21497;SDS011;10910;50.932;0.246;2022-10-22T03:11:02;0.60;;;0.60;;
21497;SDS011;10910;50.932;0.246;2022-10-22T03:13:28;0.70;;;0.70;;
21497;SDS011;10910;50.932;0.246;2022-10-22T03:15:54;0.60;;;0.60;;
21497;SDS011;10910;50.932;0.246;2022-10-22T03:18:20;0.52;;;0.52;;
21497;SDS011;10910;50.932;0.246;2022-10-22T03:20:46;0.60;;;0.60;;
21497;SDS011;10910;50.932;0.246;2022-10-22T03:23:12;0.60;;;0.60;;
21497;SDS011;10910;50.932;0.246;2022-10-22T03:25:41;0.60;;;0.60;;
21497;SDS011;10910;50.932;0.246;2022-10-22T03:28:08;0.60;;;0.60;;
21497;SDS011;10910;50.932;0.246;2022-10-22T03:30:36;0.70;;;0.70;;
21497;SDS011;10910;50.932;0.246;2022-10-22T03:33:02;0.60;;;0.60;;
21497;SDS011;10910;50.932;0.246;2022-10-22T03:35:28;0.70;;;0.70;;
21497;SDS011;10910;50.932;0.246;2022-10-22T03:37:55;0.60;;;0.60;;
21497;SDS011;10910;50.932;0.246;2022-10-22T03:40:21;0.60;;;0.60;;
21497;SDS011;10910;50.932;0.246;2022-10-22T03:42:47;0.50;;;0.50;;
21497;SDS011;10910;50.932;0.246;2022-10-22T03:45:13;0.70;;;0.70;;
21497;SDS011;10910;50.932;0.246;2022-10-22T03:47:39;0.70;;;0.70;;
21497;SDS011;10910;50.932;0.246;2022-10-22T03:50:05;0.60;;;0.60;;
21497;SDS011;10910;50.932;0.246;2022-10-22T03:52:38;0.70;;;0.70;;
21497;SDS011;10910;50.932;0.246;2022-10-22T03:55:04;0.60;;;0.60;;
21497;SDS011;10910;50.932;0.246;2022-10-22T03:57:31;0.63;;;0.63;;
21497;SDS011;10910;50.932;0.246;2022-10-22T03:59:57;0.50;;;0.50;;
21497;SDS011;10910;50.932;0.246;2022-10-22T04:02:23;0.50;;;0.50;;
21497;SDS011;10910;50.932;0.246;2022-10-22T04:04:49;0.50;;;0.50;;
21497;SDS011;10910;50.932;0.246;2022-10-22T04:07:15;0.50;;;0.50;;
21497;SDS011;10910;50.932;0.246;2022-10-22T04:09:41;0.60;;;0.60;;
21497;SDS011;10910;50.932;0.246;2022-10-22T04:12:08;0.70;;;0.70;;
21497;SDS011;10910;50.932;0.246;2022-10-22T04:14:34;0.60;;;0.60;;
21497;SDS011;10910;50.932;0.246;2022-10-22T04:17:00;0.60;;;0.60;;
21497;SDS011;10910;50.932;0.246;2022-10-22T04:19:26;0.60;;;0.60;;
21497;SDS011;10910;50.932;0.246;2022-10-22T04:21:52;0.57;;;0.57;;
21497;SDS011;10910;50.932;0.246;2022-10-22T04:24:18;0.60;;;0.60;;
21497;SDS011;10910;50.932;0.246;2022-10-22T04:26:44;0.70;;;0.70;;
21497;SDS011;10910;50.932;0.246;2022-10-22T04:29:10;0.50;;;0.50;;
21497;SDS011;10910;50.932;0.246;2022-10-22T04:31:37;0.60;;;0.60;;
21497;SDS011;10910;50.932;0.246;2022-10-22T04:34:03;0.60;;;0.60;;
21497;SDS011;10910;50.932;0.246;2022-10-22T04:36:29;0.60;;;0.60;;
21497;SDS011;10910;50.932;0.246;2022-10-22T04:38:55;0.50;;;0.50;;
21497;SDS011;10910;50.932;0.246;2022-10-22T04:41:23;0.60;;;0.60;;
21497;SDS011;10910;50.932;0.246;2022-10-22T04:43:49;0.60;;;0.60;;
21497;SDS011;10910;50.932;0.246;2022-10-22T04:46:16;0.60;;;0.60;;
21497;SDS011;10910;50.932;0.246;2022-10-22T04:48:43;0.60;;;0.60;;
21497;SDS011;10910;50.932;0.246;2022-10-22T04:51:10;0.68;;;0.68;;
21497;SDS011;10910;50.932;0.246;2022-10-22T04:53:41;0.50;;;0.50;;
21497;SDS011;10910;50.932;0.246;2022-10-22T04:58:36;0.60;;;0.60;;
21497;SDS011;10910;50.932;0.246;2022-10-22T05:01:13;0.50;;;0.50;;
21497;SDS011;10910;50.932;0.246;2022-10-22T05:03:39;0.70;;;0.70;;
21497;SDS011;10910;50.932;0.246;2022-10-22T05:06:06;0.60;;;0.60;;
21497;SDS011;10910;50.932;0.246;2022-10-22T05:08:33;0.68;;;0.68;;
21497;SDS011;10910;50.932;0.246;2022-10-22T05:10:59;0.70;;;0.70;;
21497;SDS011;10910;50.932;0.246;2022-10-22T05:13:25;0.50;;;0.50;;
21497;SDS011;10910;50.932;0.246;2022-10-22T05:15:52;0.70;;;0.70;;
21497;SDS011;10910;50.932;0.246;2022-10-22T05:18:18;0.50;;;0.50;;
21497;SDS011;10910;50.932;0.246;2022-10-22T05:20:44;0.60;;;0.60;;
21497;SDS011;10910;50.932;0.246;2022-10-22T05:23:10;0.60;;;0.60;;
21497;SDS011;10910;50.932;0.246;2022-10-22T05:25:37;0.70;;;0.70;;
21497;SDS011;10910;50.932;0.246;2022-10-22T05:28:03;0.70;;;0.70;;
21497;SDS011;10910;50.932;0.246;2022-10-22T05:30:29;0.70;;;0.70;;
21497;SDS011;10910;50.932;0.246;2022-10-22T05:32:55;0.60;;;0.60;;
21497;SDS011;10910;50.932;0.246;2022-10-22T05:35:21;0.60;;;0.60;;
21497;SDS011;10910;50.932;0.246;2022-10-22T05:37:47;0.60;;;0.60;;
21497;SDS011;10910;50.932;0.246;2022-10-22T05:40:13;0.60;;;0.60;;
21497;SDS011;10910;50.932;0.246;2022-10-22T05:42:39;0.60;;;0.60;;
21497;SDS011;10910;50.932;0.246;2022-10-22T05:45:06;0.70;;;0.70;;
21497;SDS011;10910;50.932;0.246;2022-10-22T05:47:33;0.60;;;0.60;;
21497;SDS011;10910;50.932;0.246;2022-10-22T05:49:59;0.63;;;0.63;;
21497;SDS011;10910;50.932;0.246;2022-10-22T05:52:25;0.60;;;0.60;;
21497;SDS011;10910;50.932;0.246;2022-10-22T05:54:51;0.70;;;0.70;;
21497;SDS011;10910;50.932;0.246;2022-10-22T05:57:17;0.70;;;0.70;;
21497;SDS011;10910;50.932;0.246;2022-10-22T05:59:44;0.70;;;0.70;;
21497;SDS011;10910;50.932;0.246;2022-10-22T06:02:10;0.60;;;0.60;;
21497;SDS011;10910;50.932;0.246;2022-10-22T06:04:36;0.70;;;0.70;;
21497;SDS011;10910;50.932;0.246;2022-10-22T06:07:02;0.70;;;0.70;;
21497;SDS011;10910;50.932;0.246;2022-10-22T06:09:33;0.60;;;0.60;;
21497;SDS011;10910;50.932;0.246;2022-10-22T06:12:00;0.70;;;0.70;;
21497;SDS011;10910;50.932;0.246;2022-10-22T06:14:26;0.70;;;0.70;;
21497;SDS011;10910;50.932;0.246;2022-10-22T06:16:53;0.60;;;0.60;;
21497;SDS011;10910;50.932;0.246;2022-10-22T06:19:20;0.70;;;0.70;;
21497;SDS011;10910;50.932;0.246;2022-10-22T06:21:46;0.60;;;0.60;;
21497;SDS011;10910;50.932;0.246;2022-10-22T06:24:13;0.63;;;0.63;;
21497;SDS011;10910;50.932;0.246;2022-10-22T06:26:39;0.60;;;0.60;;
21497;SDS011;10910;50.932;0.246;2022-10-22T06:29:06;0.50;;;0.50;;
21497;SDS011;10910;50.932;0.246;2022-10-22T06:31:33;0.70;;;0.70;;
21497;SDS011;10910;50.932;0.246;2022-10-22T06:34:04;0.70;;;0.70;;
21497;SDS011;10910;50.932;0.246;2022-10-22T06:36:31;0.60;;;0.60;;
21497;SDS011;10910;50.932;0.246;2022-10-22T06:38:57;0.60;;;0.60;;
21497;SDS011;10910;50.932;0.246;2022-10-22T06:41:23;0.70;;;0.70;;
21497;SDS011;10910;50.932;0.246;2022-10-22T06:43:50;0.63;;;0.63;;
21497;SDS011;10910;50.932;0.246;2022-10-22T06:46:17;0.70;;;0.70;;
21497;SDS011;10910;50.932;0.246;2022-10-22T06:48:47;0.60;;;0.60;;
21497;SDS011;10910;50.932;0.246;2022-10-22T06:51:13;0.60;;;0.60;;
21497;SDS011;10910;50.932;0.246;2022-10-22T06:53:39;0.70;;;0.70;;
21497;SDS011;10910;50.932;0.246;2022-10-22T06:58:32;0.60;;;0.60;;
21497;SDS011;10910;50.932;0.246;2022-10-22T07:01:08;0.60;;;0.60;;
21497;SDS011;10910;50.932;0.246;2022-10-22T07:03:36;0.50;;;0.50;;
21497;SDS011;10910;50.932;0.246;2022-10-22T07:06:05;0.68;;;0.68;;
21497;SDS011;10910;50.932;0.246;2022-10-22T07:08:32;0.60;;;0.60;;
21497;SDS011;10910;50.932;0.246;2022-10-22T07:11:09;0.70;;;0.70;;
21497;SDS011;10910;50.932;0.246;2022-10-22T07:13:36;0.60;;;0.60;;
21497;SDS011;10910;50.932;0.246;2022-10-22T07:16:03;0.60;;;0.60;;
21497;SDS011;10910;50.932;0.246;2022-10-22T07:18:29;0.60;;;0.60;;
21497;SDS011;10910;50.932;0.246;2022-10-22T07:20:56;0.63;;;0.63;;
21497;SDS011;10910;50.932;0.246;2022-10-22T07:23:22;0.60;;;0.60;;
21497;SDS011;10910;50.932;0.246;2022-10-22T07:25:48;0.60;;;0.60;;
21497;SDS011;10910;50.932;0.246;2022-10-22T07:28:14;0.60;;;0.60;;
21497;SDS011;10910;50.932;0.246;2022-10-22T07:30:40;0.50;;;0.50;;
21497;SDS011;10910;50.932;0.246;2022-10-22T07:33:07;0.60;;;0.60;;
21497;SDS011;10910;50.932;0.246;2022-10-22T07:35:35;0.60;;;0.60;;
21497;SDS011;10910;50.932;0.246;2022-10-22T07:38:02;0.60;;;0.60;;
21497;SDS011;10910;50.932;0.246;2022-10-22T07:40:28;0.60;;;0.60;;
21497;SDS011;10910;50.932;0.246;2022-10-22T07:42:54;0.60;;;0.60;;
21497;SDS011;10910;50.932;0.246;2022-10-22T07:45:20;0.70;;;0.70;;
21497;SDS011;10910;50.932;0.246;2022-10-22T07:47:47;0.52;;;0.52;;
21497;SDS011;10910;50.932;0.246;2022-10-22T07:50:13;0.60;;;0.60;;
21497;SDS011;10910;50.932;0.246;2022-10-22T07:52:39;0.68;;;0.68;;
21497;SDS011;10910;50.932;0.246;2022-10-22T07:55:07;0.60;;;0.60;;
21497;SDS011;10910;50.932;0.246;2022-10-22T07:57:33;0.40;;;0.40;;
21497;SDS011;10910;50.932;0.246;2022-10-22T08:00:01;0.50;;;0.50;;
21497;SDS011;10910;50.932;0.246;2022-10-22T08:02:27;0.50;;;0.50;;
21497;SDS011;10910;50.932;0.246;2022-10-22T08:04:53;0.60;;;0.60;;
21497;SDS011;10910;50.932;0.246;2022-10-22T08:07:21;0.60;;;0.60;;
21497;SDS011;10910;50.932;0.246;2022-10-22T08:09:47;0.40;;;0.40;;
21497;SDS011;10910;50.932;0.246;2022-10-22T08:12:13;0.70;;;0.70;;
21497;SDS011;10910;50.932;0.246;2022-10-22T08:14:39;0.50;;;0.50;;
21497;SDS011;10910;50.932;0.246;2022-10-22T08:17:05;0.50;;;0.50;;
21497;SDS011;10910;50.932;0.246;2022-10-22T08:19:31;0.60;;;0.60;;
21497;SDS011;10910;50.932;0.246;2022-10-22T08:21:59;0.57;;;0.57;;
21497;SDS011;10910;50.932;0.246;2022-10-22T08:24:25;0.60;;;0.60;;
21497;SDS011;10910;50.932;0.246;2022-10-22T08:26:52;0.63;;;0.63;;
21497;SDS011;10910;50.932;0.246;2022-10-22T08:29:20;0.50;;;0.50;;
21497;SDS011;10910;50.932;0.246;2022-10-22T08:31:47;0.57;;;0.57;;
21497;SDS011;10910;50.932;0.246;2022-10-22T08:34:13;0.50;;;0.50;;
21497;SDS011;10910;50.932;0.246;2022-10-22T08:36:39;0.60;;;0.60;;
21497;SDS011;10910;50.932;0.246;2022-10-22T08:39:05;0.60;;;0.60;;
21497;SDS011;10910;50.932;0.246;2022-10-22T08:41:32;0.40;;;0.40;;
21497;SDS011;10910;50.932;0.246;2022-10-22T08:46:42;0.50;;;0.50;;
21497;SDS011;10910;50.932;0.246;2022-10-22T08:49:40;0.50;;;0.50;;
21497;SDS011;10910;50.932;0.246;2022-10-22T08:52:08;0.50;;;0.50;;
21497;SDS011;10910;50.932;0.246;2022-10-22T09:00:35;0.50;;;0.50;;
21497;SDS011;10910;50.932;0.246;2022-10-22T09:03:09;0.50;;;0.50;;
21497;SDS011;10910;50.932;0.246;2022-10-22T09:08:37;0.40;;;0.40;;
21497;SDS011;10910;50.932;0.246;2022-10-22T09:13:36;0.50;;;0.50;;
21497;SDS011;10910;50.932;0.246;2022-10-22T09:19:20;0.50;;;0.50;;
21497;SDS011;10910;50.932;0.246;2022-10-22T09:24:48;0.60;;;0.60;;
21497;SDS011;10910;50.932;0.246;2022-10-22T09:27:15;0.50;;;0.50;;
21497;SDS011;10910;50.932;0.246;2022-10-22T09:29:42;0.55;;;0.55;;
21497;SDS011;10910;50.932;0.246;2022-10-22T09:32:08;0.60;;;0.60;;
21497;SDS011;10910;50.932;0.246;2022-10-22T09:34:35;0.50;;;0.50;;
21497;SDS011;10910;50.932;0.246;2022-10-22T09:37:02;0.60;;;0.60;;
21497;SDS011;10910;50.932;0.246;2022-10-22T09:39:33;0.60;;;0.60;;
21497;SDS011;10910;50.932;0.246;2022-10-22T09:41:59;0.63;;;0.63;;
21497;SDS011;10910;50.932;0.246;2022-10-22T09:44:25;0.60;;;0.60;;
21497;SDS011;10910;50.932;0.246;2022-10-22T09:46:51;0.50;;;0.50;;
21497;SDS011;10910;50.932;0.246;2022-10-22T09:49:18;0.60;;;0.60;;
21497;SDS011;10910;50.932;0.246;2022-10-22T09:51:58;0.50;;;0.50;;
21497;SDS011;10910;50.932;0.246;2022-10-22T09:59:41;0.45;;;0.45;;
21497;SDS011;10910;50.932;0.246;2022-10-22T10:04:34;0.60;;;0.60;;
21497;SDS011;10910;50.932;0.246;2022-10-22T10:07:11;0.43;;;0.43;;
21497;SDS011;10910;50.932;0.246;2022-10-22T10:09:43;0.60;;;0.60;;
21497;SDS011;10910;50.932;0.246;2022-10-22T10:12:16;0.50;;;0.50;;
21497;SDS011;10910;50.932;0.246;2022-10-22T10:27:38;0.50;;;0.50;;
21497;SDS011;10910;50.932;0.246;2022-10-22T10:30:11;0.50;;;0.50;;
21497;SDS011;10910;50.932;0.246;2022-10-22T10:37:51;0.50;;;0.50;;
21497;SDS011;10910;50.932;0.246;2022-10-22T10:46:01;0.50;;;0.50;;
21497;SDS011;10910;50.932;0.246;2022-10-22T10:58:49;0.40;;;0.40;;
21497;SDS011;10910;50.932;0.246;2022-10-22T11:01:23;0.50;;;0.50;;
21497;SDS011;10910;50.932;0.246;2022-10-22T11:06:24;0.40;;;0.40;;
21497;SDS011;10910;50.932;0.246;2022-10-22T11:08:56;0.40;;;0.40;;
21497;SDS011;10910;50.932;0.246;2022-10-22T11:14:04;0.30;;;0.30;;
21497;SDS011;10910;50.932;0.246;2022-10-22T11:16:39;0.30;;;0.30;;
21497;SDS011;10910;50.932;0.246;2022-10-22T11:29:09;0.32;;;0.32;;
21497;SDS011;10910;50.932;0.246;2022-10-22T11:31:37;0.30;;;0.30;;
21497;SDS011;10910;50.932;0.246;2022-10-22T11:36:42;0.30;;;0.30;;
21497;SDS011;10910;50.932;0.246;2022-10-22T11:45:00;0.25;;;0.25;;
21497;SDS011;10910;50.932;0.246;2022-10-22T11:47:31;0.30;;;0.30;;
21497;SDS011;10910;50.932;0.246;2022-10-22T11:49:58;0.30;;;0.30;;
21497;SDS011;10910;50.932;0.246;2022-10-22T11:53:16;0.20;;;0.20;;
21497;SDS011;10910;50.932;0.246;2022-10-22T12:00:57;0.28;;;0.28;;
21497;SDS011;10910;50.932;0.246;2022-10-22T12:03:46;0.30;;;0.30;;
21497;SDS011;10910;50.932;0.246;2022-10-22T12:11:21;0.30;;;0.30;;
21497;SDS011;10910;50.932;0.246;2022-10-22T12:16:14;0.30;;;0.30;;
21497;SDS011;10910;50.932;0.246;2022-10-22T12:18:41;0.30;;;0.30;;
21497;SDS011;10910;50.932;0.246;2022-10-22T12:21:11;0.30;;;0.30;;
21497;SDS011;10910;50.932;0.246;2022-10-22T12:23:39;0.40;;;0.40;;
21497;SDS011;10910;50.932;0.246;2022-10-22T12:26:47;0.30;;;0.30;;
21497;SDS011;10910;50.932;0.246;2022-10-22T12:28:56;0.40;;;0.40;;
21497;SDS011;10910;50.932;0.246;2022-10-22T12:31:22;0.30;;;0.30;;
21497;SDS011;10910;50.932;0.246;2022-10-22T12:33:58;0.40;;;0.40;;
21497;SDS011;10910;50.932;0.246;2022-10-22T12:36:25;0.40;;;0.40;;
21497;SDS011;10910;50.932;0.246;2022-10-22T12:38:51;0.40;;;0.40;;
21497;SDS011;10910;50.932;0.246;2022-10-22T12:41:17;0.30;;;0.30;;
21497;SDS011;10910;50.932;0.246;2022-10-22T12:43:43;0.30;;;0.30;;
21497;SDS011;10910;50.932;0.246;2022-10-22T12:46:10;0.40;;;0.40;;
21497;SDS011;10910;50.932;0.246;2022-10-22T12:48:39;0.40;;;0.40;;
21497;SDS011;10910;50.932;0.246;2022-10-22T12:51:05;0.40;;;0.40;;
21497;SDS011;10910;50.932;0.246;2022-10-22T12:53:52;0.40;;;0.40;;
21497;SDS011;10910;50.932;0.246;2022-10-22T12:56:23;0.40;;;0.40;;
21497;SDS011;10910;50.932;0.246;2022-10-22T12:59:01;0.40;;;0.40;;
21497;SDS011;10910;50.932;0.246;2022-10-22T13:01:28;0.40;;;0.40;;
21497;SDS011;10910;50.932;0.246;2022-10-22T13:04:03;0.40;;;0.40;;
21497;SDS011;10910;50.932;0.246;2022-10-22T13:06:32;0.50;;;0.50;;
21497;SDS011;10910;50.932;0.246;2022-10-22T13:11:47;0.43;;;0.43;;
21497;SDS011;10910;50.932;0.246;2022-10-22T13:17:06;0.30;;;0.30;;
21497;SDS011;10910;50.932;0.246;2022-10-22T13:22:24;0.30;;;0.30;;
21497;SDS011;10910;50.932;0.246;2022-10-22T13:24:51;0.38;;;0.38;;
21497;SDS011;10910;50.932;0.246;2022-10-22T13:27:17;0.40;;;0.40;;
21497;SDS011;10910;50.932;0.246;2022-10-22T13:29:43;0.30;;;0.30;;
21497;SDS011;10910;50.932;0.246;2022-10-22T13:32:23;0.30;;;0.30;;
21497;SDS011;10910;50.932;0.246;2022-10-22T13:34:51;0.40;;;0.40;;
21497;SDS011;10910;50.932;0.246;2022-10-22T13:37:18;0.30;;;0.30;;
21497;SDS011;10910;50.932;0.246;2022-10-22T13:39:44;0.47;;;0.47;;
21497;SDS011;10910;50.932;0.246;2022-10-22T13:42:11;0.40;;;0.40;;
21497;SDS011;10910;50.932;0.246;2022-10-22T13:44:37;0.30;;;0.30;;
21497;SDS011;10910;50.932;0.246;2022-10-22T13:47:04;0.45;;;0.45;;
21497;SDS011;10910;50.932;0.246;2022-10-22T13:49:56;0.50;;;0.50;;
21497;SDS011;10910;50.932;0.246;2022-10-22T13:52:27;0.40;;;0.40;;
21497;SDS011;10910;50.932;0.246;2022-10-22T13:54:54;0.40;;;0.40;;
21497;SDS011;10910;50.932;0.246;2022-10-22T13:57:20;0.50;;;0.50;;
21497;SDS011;10910;50.932;0.246;2022-10-22T13:59:46;0.45;;;0.45;;
21497;SDS011;10910;50.932;0.246;2022-10-22T14:02:12;0.40;;;0.40;;
21497;SDS011;10910;50.932;0.246;2022-10-22T14:04:40;0.40;;;0.40;;
21497;SDS011;10910;50.932;0.246;2022-10-22T14:07:13;0.60;;;0.60;;
21497;SDS011;10910;50.932;0.246;2022-10-22T14:09:39;0.52;;;0.52;;
21497;SDS011;10910;50.932;0.246;2022-10-22T14:12:10;0.50;;;0.50;;
21497;SDS011;10910;50.932;0.246;2022-10-22T14:14:36;0.40;;;0.40;;
21497;SDS011;10910;50.932;0.246;2022-10-22T14:17:03;0.50;;;0.50;;
21497;SDS011;10910;50.932;0.246;2022-10-22T14:19:29;0.50;;;0.50;;
21497;SDS011;10910;50.932;0.246;2022-10-22T14:21:55;0.50;;;0.50;;
21497;SDS011;10910;50.932;0.246;2022-10-22T14:24:21;0.40;;;0.40;;
21497;SDS011;10910;50.932;0.246;2022-10-22T14:26:48;0.50;;;0.50;;
21497;SDS011;10910;50.932;0.246;2022-10-22T14:29:14;0.40;;;0.40;;
21497;SDS011;10910;50.932;0.246;2022-10-22T14:31:40;0.40;;;0.40;;
21497;SDS011;10910;50.932;0.246;2022-10-22T14:34:09;0.40;;;0.40;;
21497;SDS011;10910;50.932;0.246;2022-10-22T14:36:35;0.50;;;0.50;;
21497;SDS011;10910;50.932;0.246;2022-10-22T14:39:01;0.40;;;0.40;;
21497;SDS011;10910;50.932;0.246;2022-10-22T14:41:28;0.40;;;0.40;;
21497;SDS011;10910;50.932;0.246;2022-10-22T14:43:54;0.50;;;0.50;;
21497;SDS011;10910;50.932;0.246;2022-10-22T14:46:21;0.50;;;0.50;;
21497;SDS011;10910;50.932;0.246;2022-10-22T14:48:47;0.50;;;0.50;;
21497;SDS011;10910;50.932;0.246;2022-10-22T14:51:14;0.50;;;0.50;;
21497;SDS011;10910;50.932;0.246;2022-10-22T14:53:44;0.40;;;0.40;;
21497;SDS011;10910;50.932;0.246;2022-10-22T14:56:11;0.50;;;0.50;;
21497;SDS011;10910;50.932;0.246;2022-10-22T14:58:38;0.50;;;0.50;;
21497;SDS011;10910;50.932;0.246;2022-10-22T15:01:07;0.40;;;0.40;;
21497;SDS011;10910;50.932;0.246;2022-10-22T15:03:33;0.40;;;0.40;;
21497;SDS011;10910;50.932;0.246;2022-10-22T15:05:59;0.50;;;0.50;;
21497;SDS011;10910;50.932;0.246;2022-10-22T15:08:26;0.50;;;0.50;;
21497;SDS011;10910;50.932;0.246;2022-10-22T15:11:09;0.50;;;0.50;;
21497;SDS011;10910;50.932;0.246;2022-10-22T15:13:35;0.50;;;0.50;;
21497;SDS011;10910;50.932;0.246;2022-10-22T15:16:04;0.60;;;0.60;;
21497;SDS011;10910;50.932;0.246;2022-10-22T15:18:32;0.50;;;0.50;;
21497;SDS011;10910;50.932;0.246;2022-10-22T15:20:59;0.50;;;0.50;;
21497;SDS011;10910;50.932;0.246;2022-10-22T15:23:27;0.50;;;0.50;;
21497;SDS011;10910;50.932;0.246;2022-10-22T15:25:53;0.55;;;0.55;;
21497;SDS011;10910;50.932;0.246;2022-10-22T15:28:20;0.43;;;0.43;;
21497;SDS011;10910;50.932;0.246;2022-10-22T15:30:53;0.60;;;0.60;;
21497;SDS011;10910;50.932;0.246;2022-10-22T15:33:19;0.50;;;0.50;;
21497;SDS011;10910;50.932;0.246;2022-10-22T15:35:45;0.60;;;0.60;;
21497;SDS011;10910;50.932;0.246;2022-10-22T15:38:11;0.50;;;0.50;;
21497;SDS011;10910;50.932;0.246;2022-10-22T15:40:37;0.50;;;0.50;;
21497;SDS011;10910;50.932;0.246;2022-10-22T15:43:03;0.50;;;0.50;;
21497;SDS011;10910;50.932;0.246;2022-10-22T15:45:29;0.50;;;0.50;;
21497;SDS011;10910;50.932;0.246;2022-10-22T15:48:03;0.50;;;0.50;;
21497;SDS011;10910;50.932;0.246;2022-10-22T15:50:35;0.50;;;0.50;;
21497;SDS011;10910;50.932;0.246;2022-10-22T15:53:02;0.40;;;0.40;;
21497;SDS011;10910;50.932;0.246;2022-10-22T15:55:29;0.63;;;0.63;;
21497;SDS011;10910;50.932;0.246;2022-10-22T15:57:55;0.52;;;0.52;;
21497;SDS011;10910;50.932;0.246;2022-10-22T16:00:21;0.60;;;0.60;;
21497;SDS011;10910;50.932;0.246;2022-10-22T16:02:49;0.50;;;0.50;;
21497;SDS011;10910;50.932;0.246;2022-10-22T16:05:15;0.50;;;0.50;;
21497;SDS011;10910;50.932;0.246;2022-10-22T16:07:41;0.50;;;0.50;;
21497;SDS011;10910;50.932;0.246;2022-10-22T16:10:07;0.50;;;0.50;;
21497;SDS011;10910;50.932;0.246;2022-10-22T16:12:36;0.50;;;0.50;;
21497;SDS011;10910;50.932;0.246;2022-10-22T16:15:04;0.60;;;0.60;;
21497;SDS011;10910;50.932;0.246;2022-10-22T16:17:31;0.60;;;0.60;;
21497;SDS011;10910;50.932;0.246;2022-10-22T16:19:57;0.60;;;0.60;;
21497;SDS011;10910;50.932;0.246;2022-10-22T16:22:23;0.50;;;0.50;;
21497;SDS011;10910;50.932;0.246;2022-10-22T16:24:52;0.50;;;0.50;;
21497;SDS011;10910;50.932;0.246;2022-10-22T16:27:18;0.50;;;0.50;;
21497;SDS011;10910;50.932;0.246;2022-10-22T16:29:44;0.50;;;0.50;;
21497;SDS011;10910;50.932;0.246;2022-10-22T16:32:10;0.50;;;0.50;;
21497;SDS011;10910;50.932;0.246;2022-10-22T16:34:37;0.60;;;0.60;;
21497;SDS011;10910;50.932;0.246;2022-10-22T16:37:03;0.70;;;0.70;;
21497;SDS011;10910;50.932;0.246;2022-10-22T16:39:33;0.50;;;0.50;;
21497;SDS011;10910;50.932;0.246;2022-10-22T16:42:00;0.50;;;0.50;;
21497;SDS011;10910;50.932;0.246;2022-10-22T16:44:26;0.45;;;0.45;;
21497;SDS011;10910;50.932;0.246;2022-10-22T16:46:52;0.60;;;0.60;;
21497;SDS011;10910;50.932;0.246;2022-10-22T16:49:18;0.50;;;0.50;;
21497;SDS011;10910;50.932;0.246;2022-10-22T16:51:44;0.65;;;0.65;;
21497;SDS011;10910;50.932;0.246;2022-10-22T16:54:11;0.60;;;0.60;;
21497;SDS011;10910;50.932;0.246;2022-10-22T16:56:39;0.50;;;0.50;;
21497;SDS011;10910;50.932;0.246;2022-10-22T16:59:05;0.60;;;0.60;;
21497;SDS011;10910;50.932;0.246;2022-10-22T17:01:32;0.50;;;0.50;;
21497;SDS011;10910;50.932;0.246;2022-10-22T17:03:58;0.50;;;0.50;;
21497;SDS011;10910;50.932;0.246;2022-10-22T17:06:24;0.60;;;0.60;;
21497;SDS011;10910;50.932;0.246;2022-10-22T17:08:50;0.50;;;0.50;;
21497;SDS011;10910;50.932;0.246;2022-10-22T17:11:18;0.60;;;0.60;;
21497;SDS011;10910;50.932;0.246;2022-10-22T17:13:47;0.60;;;0.60;;